sensor_id;sensor_type;location;lat;lon;timestamp;pressure;altitude;pressure_sealevel;temperature;humidity
54262;BME280;40174;52.364;6.452;2023-02-12T00:01:14;103522.25;;;6.74;100.00
54262;BME280;40174;52.364;6.452;2023-02-12T00:03:41;103519.69;;;6.73;100.00
54262;BME280;40174;52.364;6.452;2023-02-12T00:06:09;103523.19;;;6.72;100.00
54262;BME280;40174;52.364;6.452;2023-02-12T00:08:38;103528.47;;;6.70;100.00
54262;BME280;40174;52.364;6.452;2023-02-12T00:11:10;103530.31;;;6.66;100.00
54262;BME280;40174;52.364;6.452;2023-02-12T00:13:37;103537.25;;;6.71;100.00
54262;BME280;40174;52.364;6.452;2023-02-12T00:16:05;103542.53;;;6.69;100.00
54262;BME280;40174;52.364;6.452;2023-02-12T00:18:32;103532.09;;;6.66;100.00
54262;BME280;40174;52.364;6.452;2023-02-12T00:20:59;103540.84;;;6.66;100.00
54262;BME280;40174;52.364;6.452;2023-02-12T00:23:26;103535.59;;;6.65;100.00
54262;BME280;40174;52.364;6.452;2023-02-12T00:25:54;103540.00;;;6.64;100.00
54262;BME280;40174;52.364;6.452;2023-02-12T00:28:21;103550.50;;;6.66;100.00
54262;BME280;40174;52.364;6.452;2023-02-12T00:30:47;103541.78;;;6.64;100.00
54262;BME280;40174;52.364;6.452;2023-02-12T00:33:14;103540.84;;;6.65;100.00
54262;BME280;40174;52.364;6.452;2023-02-12T00:35:41;103538.25;;;6.63;100.00
54262;BME280;40174;52.364;6.452;2023-02-12T00:38:07;103530.41;;;6.62;100.00
54262;BME280;40174;52.364;6.452;2023-02-12T00:40:34;103526.94;;;6.61;100.00
54262;BME280;40174;52.364;6.452;2023-02-12T00:43:02;103533.06;;;6.62;100.00
54262;BME280;40174;52.364;6.452;2023-02-12T00:45:31;103528.72;;;6.59;100.00
54262;BME280;40174;52.364;6.452;2023-02-12T00:47:58;103522.63;;;6.57;100.00
54262;BME280;40174;52.364;6.452;2023-02-12T00:50:24;103527.84;;;6.59;100.00
54262;BME280;40174;52.364;6.452;2023-02-12T00:52:51;103527.91;;;6.56;100.00
54262;BME280;40174;52.364;6.452;2023-02-12T00:55:18;103534.94;;;6.55;100.00
54262;BME280;40174;52.364;6.452;2023-02-12T00:57:45;103528.81;;;6.55;100.00
54262;BME280;40174;52.364;6.452;2023-02-12T01:00:14;103527.00;;;6.57;100.00
54262;BME280;40174;52.364;6.452;2023-02-12T01:02:41;103530.53;;;6.56;100.00
54262;BME280;40174;52.364;6.452;2023-02-12T01:05:07;103527.06;;;6.54;100.00
54262;BME280;40174;52.364;6.452;2023-02-12T01:07:34;103528.84;;;6.53;100.00
54262;BME280;40174;52.364;6.452;2023-02-12T01:10:04;103531.50;;;6.50;100.00
54262;BME280;40174;52.364;6.452;2023-02-12T01:12:31;103531.50;;;6.50;100.00
54262;BME280;40174;52.364;6.452;2023-02-12T01:14:58;103533.28;;;6.50;100.00
54262;BME280;40174;52.364;6.452;2023-02-12T01:17:26;103550.78;;;6.51;100.00
54262;BME280;40174;52.364;6.452;2023-02-12T01:19:56;103536.84;;;6.47;100.00
54262;BME280;40174;52.364;6.452;2023-02-12T01:22:22;103547.34;;;6.47;100.00
54262;BME280;40174;52.364;6.452;2023-02-12T01:24:49;103538.53;;;6.50;100.00
54262;BME280;40174;52.364;6.452;2023-02-12T01:27:15;103538.59;;;6.47;100.00
54262;BME280;40174;52.364;6.452;2023-02-12T01:29:42;103546.56;;;6.43;100.00
54262;BME280;40174;52.364;6.452;2023-02-12T01:32:10;103537.78;;;6.44;100.00
54262;BME280;40174;52.364;6.452;2023-02-12T01:34:38;103542.19;;;6.42;100.00
54262;BME280;40174;52.364;6.452;2023-02-12T01:37:05;103540.47;;;6.41;100.00
54262;BME280;40174;52.364;6.452;2023-02-12T01:39:31;103545.75;;;6.40;100.00
54262;BME280;40174;52.364;6.452;2023-02-12T01:41:58;103545.81;;;6.37;100.00
54262;BME280;40174;52.364;6.452;2023-02-12T01:44:29;103545.81;;;6.37;100.00
54262;BME280;40174;52.364;6.452;2023-02-12T01:46:58;103548.47;;;6.34;100.00
54262;BME280;40174;52.364;6.452;2023-02-12T01:49:28;103549.34;;;6.34;100.00
54262;BME280;40174;52.364;6.452;2023-02-12T01:52:03;103545.88;;;6.32;100.00
54262;BME280;40174;52.364;6.452;2023-02-12T01:54:33;103556.38;;;6.32;100.00
54262;BME280;40174;52.364;6.452;2023-02-12T01:57:02;103544.19;;;6.30;100.00
54262;BME280;40174;52.364;6.452;2023-02-12T01:59:30;103540.69;;;6.29;100.00
54262;BME280;40174;52.364;6.452;2023-02-12T02:01:58;103537.22;;;6.27;100.00
54262;BME280;40174;52.364;6.452;2023-02-12T02:04:28;103541.59;;;6.28;100.00
54262;BME280;40174;52.364;6.452;2023-02-12T02:06:57;103537.22;;;6.27;100.00
54262;BME280;40174;52.364;6.452;2023-02-12T02:09:27;103544.22;;;6.28;100.00
54262;BME280;40174;52.364;6.452;2023-02-12T02:11:54;103540.78;;;6.24;100.00
54262;BME280;40174;52.364;6.452;2023-02-12T02:14:40;103538.19;;;6.23;100.00
54262;BME280;40174;52.364;6.452;2023-02-12T02:17:36;103537.38;;;6.19;100.00
54262;BME280;40174;52.364;6.452;2023-02-12T02:20:29;103525.97;;;6.20;100.00
54262;BME280;40174;52.364;6.452;2023-02-12T02:23:15;103526.03;;;6.17;100.00
54262;BME280;40174;52.364;6.452;2023-02-12T02:25:59;103520.78;;;6.17;100.00
54262;BME280;40174;52.364;6.452;2023-02-12T02:28:57;103519.84;;;6.20;100.00
54262;BME280;40174;52.364;6.452;2023-02-12T02:31:27;103521.66;;;6.16;100.00
54262;BME280;40174;52.364;6.452;2023-02-12T02:34:02;103519.09;;;6.15;100.00
54262;BME280;40174;52.364;6.452;2023-02-12T02:44:12;103512.19;;;6.09;100.00
54262;BME280;40174;52.364;6.452;2023-02-12T02:46:43;103520.06;;;6.09;100.00
54262;BME280;40174;52.364;6.452;2023-02-12T02:49:15;103515.72;;;6.07;100.00
54262;BME280;40174;52.364;6.452;2023-02-12T02:51:47;103516.63;;;6.06;100.00
54262;BME280;40174;52.364;6.452;2023-02-12T02:54:17;103513.13;;;6.05;100.00
54262;BME280;40174;52.364;6.452;2023-02-12T02:56:48;103514.09;;;6.01;100.00
54262;BME280;40174;52.364;6.452;2023-02-12T02:59:19;103516.72;;;6.01;100.00
54262;BME280;40174;52.364;6.452;2023-02-12T03:01:51;103505.31;;;6.00;100.00
54262;BME280;40174;52.364;6.452;2023-02-12T03:04:21;103512.41;;;5.97;100.00
54262;BME280;40174;52.364;6.452;2023-02-12T03:06:53;103511.56;;;5.92;100.00
54262;BME280;40174;52.364;6.452;2023-02-12T03:09:24;103508.09;;;5.91;100.00
54262;BME280;40174;52.364;6.452;2023-02-12T03:11:56;103504.69;;;5.86;100.00
54262;BME280;40174;52.364;6.452;2023-02-12T03:14:27;103500.38;;;5.83;100.00
54262;BME280;40174;52.364;6.452;2023-02-12T03:17:01;103504.78;;;5.80;100.00
54262;BME280;40174;52.364;6.452;2023-02-12T03:19:29;103508.38;;;5.76;100.00
54262;BME280;40174;52.364;6.452;2023-02-12T03:22:00;103514.59;;;5.72;100.00
54262;BME280;40174;52.364;6.452;2023-02-12T03:24:31;103513.75;;;5.68;100.00
54262;BME280;40174;52.364;6.452;2023-02-12T03:27:05;103503.34;;;5.63;100.00
54262;BME280;40174;52.364;6.452;2023-02-12T03:29:33;103505.13;;;5.60;100.00
54262;BME280;40174;52.364;6.452;2023-02-12T03:32:13;103506.97;;;5.55;100.00
54262;BME280;40174;52.364;6.452;2023-02-12T03:34:46;103508.81;;;5.50;100.00
54262;BME280;40174;52.364;6.452;2023-02-12T03:37:19;103507.13;;;5.47;100.00
54262;BME280;40174;52.364;6.452;2023-02-12T03:39:52;103495.81;;;5.42;100.00
54262;BME280;40174;52.364;6.452;2023-02-12T03:42:29;103496.81;;;5.35;100.00
54262;BME280;40174;52.364;6.452;2023-02-12T03:45:01;103501.22;;;5.31;100.00
54262;BME280;40174;52.364;6.452;2023-02-12T03:47:38;103496.88;;;5.29;100.00
54262;BME280;40174;52.364;6.452;2023-02-12T03:50:10;103506.53;;;5.27;100.00
54262;BME280;40174;52.364;6.452;2023-02-12T03:52:39;103497.94;;;5.18;100.00
54262;BME280;40174;52.364;6.452;2023-02-12T03:55:08;103509.31;;;5.17;100.00
54262;BME280;40174;52.364;6.452;2023-02-12T03:57:39;103499.72;;;5.15;100.00
54262;BME280;40174;52.364;6.452;2023-02-12T04:00:11;103499.78;;;5.12;100.00
54262;BME280;40174;52.364;6.452;2023-02-12T04:02:42;103511.19;;;5.08;100.00
54262;BME280;40174;52.364;6.452;2023-02-12T04:05:17;103506.03;;;5.03;100.00
54262;BME280;40174;52.364;6.452;2023-02-12T04:07:44;103506.94;;;5.00;100.00
54262;BME280;40174;52.364;6.452;2023-02-12T04:10:11;103513.09;;;4.96;100.00
54262;BME280;40174;52.364;6.452;2023-02-12T04:12:41;103518.38;;;4.95;100.00
54262;BME280;40174;52.364;6.452;2023-02-12T04:15:23;103519.34;;;4.89;100.00
54262;BME280;40174;52.364;6.452;2023-02-12T04:18:06;103521.09;;;4.89;100.00
54262;BME280;40174;52.364;6.452;2023-02-12T04:20:41;103531.59;;;4.86;100.00
54262;BME280;40174;52.364;6.452;2023-02-12T04:23:21;103529.03;;;4.81;100.00
54262;BME280;40174;52.364;6.452;2023-02-12T04:25:54;103539.53;;;4.79;100.00
54262;BME280;40174;52.364;6.452;2023-02-12T04:28:30;103532.56;;;4.78;100.00
54262;BME280;40174;52.364;6.452;2023-02-12T04:31:02;103537.88;;;4.74;100.00
54262;BME280;40174;52.364;6.452;2023-02-12T04:33:37;103547.50;;;4.73;100.00
54262;BME280;40174;52.364;6.452;2023-02-12T04:36:10;103553.66;;;4.71;100.00
54262;BME280;40174;52.364;6.452;2023-02-12T04:38:42;103558.00;;;4.70;100.00
54262;BME280;40174;52.364;6.452;2023-02-12T04:41:12;103553.66;;;4.66;100.00
54262;BME280;40174;52.364;6.452;2023-02-12T04:43:39;103559.78;;;4.67;100.00
54262;BME280;40174;52.364;6.452;2023-02-12T04:46:07;103556.31;;;4.65;100.00
54262;BME280;40174;52.364;6.452;2023-02-12T04:48:36;103562.44;;;4.64;100.00
54262;BME280;40174;52.364;6.452;2023-02-12T04:51:08;103554.63;;;4.62;100.00
54262;BME280;40174;52.364;6.452;2023-02-12T04:53:35;103558.09;;;4.61;100.00
54262;BME280;40174;52.364;6.452;2023-02-12T04:56:02;103558.97;;;4.62;100.00
54262;BME280;40174;52.364;6.452;2023-02-12T04:58:29;103557.25;;;4.62;100.00
54262;BME280;40174;52.364;6.452;2023-02-12T05:00:57;103554.63;;;4.62;100.00
54262;BME280;40174;52.364;6.452;2023-02-12T05:03:24;103555.47;;;4.63;100.00
54262;BME280;40174;52.364;6.452;2023-02-12T05:05:52;103552.84;;;4.64;100.00
54262;BME280;40174;52.364;6.452;2023-02-12T05:08:18;103553.66;;;4.66;100.00
54262;BME280;40174;52.364;6.452;2023-02-12T05:10:45;103552.78;;;4.69;100.00
54262;BME280;40174;52.364;6.452;2023-02-12T05:13:12;103551.03;;;4.68;100.00
54262;BME280;40174;52.364;6.452;2023-02-12T05:15:38;103556.28;;;4.66;100.00
54262;BME280;40174;52.364;6.452;2023-02-12T05:18:05;103554.56;;;4.67;100.00
54262;BME280;40174;52.364;6.452;2023-02-12T05:20:31;103554.53;;;4.68;100.00
54262;BME280;40174;52.364;6.452;2023-02-12T05:22:59;103554.53;;;4.68;100.00
54262;BME280;40174;52.364;6.452;2023-02-12T05:25:26;103545.78;;;4.69;100.00
54262;BME280;40174;52.364;6.452;2023-02-12T05:27:53;103557.13;;;4.71;100.00
54262;BME280;40174;52.364;6.452;2023-02-12T05:30:20;103560.59;;;4.70;100.00
54262;BME280;40174;52.364;6.452;2023-02-12T05:32:47;103557.13;;;4.71;100.00
54262;BME280;40174;52.364;6.452;2023-02-12T05:35:14;103554.50;;;4.71;100.00
54262;BME280;40174;52.364;6.452;2023-02-12T05:37:40;103553.59;;;4.72;100.00
54262;BME280;40174;52.364;6.452;2023-02-12T05:40:09;103557.06;;;4.74;100.00
54262;BME280;40174;52.364;6.452;2023-02-12T05:42:36;103549.19;;;4.76;100.00
54262;BME280;40174;52.364;6.452;2023-02-12T05:45:04;103561.44;;;4.75;100.00
54262;BME280;40174;52.364;6.452;2023-02-12T05:47:31;103564.03;;;4.77;100.00
54262;BME280;40174;52.364;6.452;2023-02-12T05:49:57;103564.06;;;4.75;100.00
54262;BME280;40174;52.364;6.452;2023-02-12T05:52:24;103563.16;;;4.76;100.00
54262;BME280;40174;52.364;6.452;2023-02-12T05:54:50;103566.66;;;4.77;100.00
54262;BME280;40174;52.364;6.452;2023-02-12T05:57:18;103563.16;;;4.78;100.00
54262;BME280;40174;52.364;6.452;2023-02-12T05:59:45;103570.13;;;4.77;100.00
54262;BME280;40174;52.364;6.452;2023-02-12T06:02:11;103561.41;;;4.78;100.00
54262;BME280;40174;52.364;6.452;2023-02-12T06:04:38;103575.34;;;4.79;100.00
54262;BME280;40174;52.364;6.452;2023-02-12T06:07:05;103566.66;;;4.77;100.00
54262;BME280;40174;52.364;6.452;2023-02-12T06:09:32;103574.50;;;4.80;100.00
54262;BME280;40174;52.364;6.452;2023-02-12T06:11:59;103572.72;;;4.81;100.00
54262;BME280;40174;52.364;6.452;2023-02-12T06:14:28;103577.97;;;4.82;100.00
54262;BME280;40174;52.364;6.452;2023-02-12T06:16:54;103574.44;;;4.83;100.00
54262;BME280;40174;52.364;6.452;2023-02-12T06:19:21;103579.69;;;4.82;100.00
54262;BME280;40174;52.364;6.452;2023-02-12T06:21:48;103578.81;;;4.83;100.00
54262;BME280;40174;52.364;6.452;2023-02-12T06:24:15;103577.09;;;4.80;100.00
54262;BME280;40174;52.364;6.452;2023-02-12T06:26:42;103567.47;;;4.82;100.00
54262;BME280;40174;52.364;6.452;2023-02-12T06:29:09;103571.81;;;4.83;100.00
54262;BME280;40174;52.364;6.452;2023-02-12T06:31:37;103568.28;;;4.84;100.00
54262;BME280;40174;52.364;6.452;2023-02-12T06:34:05;103575.28;;;4.85;100.00
54262;BME280;40174;52.364;6.452;2023-02-12T06:36:32;103575.31;;;4.84;100.00
54262;BME280;40174;52.364;6.452;2023-02-12T06:38:59;103575.31;;;4.84;100.00
54262;BME280;40174;52.364;6.452;2023-02-12T06:41:27;103570.91;;;4.84;100.00
54262;BME280;40174;52.364;6.452;2023-02-12T06:43:53;103573.53;;;4.86;100.00
54262;BME280;40174;52.364;6.452;2023-02-12T06:46:20;103575.25;;;4.88;100.00
54262;BME280;40174;52.364;6.452;2023-02-12T06:48:51;103584.88;;;4.86;100.00
54262;BME280;40174;52.364;6.452;2023-02-12T06:51:18;103584.03;;;4.84;100.00
54262;BME280;40174;52.364;6.452;2023-02-12T06:53:46;103588.34;;;4.88;100.00
54262;BME280;40174;52.364;6.452;2023-02-12T06:56:13;103574.38;;;4.86;100.00
54262;BME280;40174;52.364;6.452;2023-02-12T06:58:42;103578.75;;;4.87;100.00
54262;BME280;40174;52.364;6.452;2023-02-12T07:01:10;103589.19;;;4.90;100.00
54262;BME280;40174;52.364;6.452;2023-02-12T07:03:38;103590.09;;;4.89;100.00
54262;BME280;40174;52.364;6.452;2023-02-12T07:06:07;103592.72;;;4.89;100.00
54262;BME280;40174;52.364;6.452;2023-02-12T07:08:34;103601.44;;;4.91;100.00
54262;BME280;40174;52.364;6.452;2023-02-12T07:11:01;103597.06;;;4.90;100.00
54262;BME280;40174;52.364;6.452;2023-02-12T07:13:27;103597.09;;;4.89;100.00
54262;BME280;40174;52.364;6.452;2023-02-12T07:15:54;103600.59;;;4.89;100.00
54262;BME280;40174;52.364;6.452;2023-02-12T07:18:21;103609.28;;;4.91;100.00
54262;BME280;40174;52.364;6.452;2023-02-12T07:20:47;103608.38;;;4.94;100.00
54262;BME280;40174;52.364;6.452;2023-02-12T07:23:15;103607.47;;;4.96;100.00
54262;BME280;40174;52.364;6.452;2023-02-12T07:25:42;103606.56;;;4.97;100.00
54262;BME280;40174;52.364;6.452;2023-02-12T07:28:09;103610.09;;;4.98;100.00
54262;BME280;40174;52.364;6.452;2023-02-12T07:30:36;103612.66;;;4.99;100.00
54262;BME280;40174;52.364;6.452;2023-02-12T07:33:03;103614.44;;;4.97;100.00
54262;BME280;40174;52.364;6.452;2023-02-12T07:35:29;103612.66;;;4.99;100.00
54262;BME280;40174;52.364;6.452;2023-02-12T07:37:57;103619.69;;;4.97;100.00
54262;BME280;40174;52.364;6.452;2023-02-12T07:40:25;103624.00;;;5.03;100.00
54262;BME280;40174;52.364;6.452;2023-02-12T07:42:53;103621.38;;;5.03;100.00
54262;BME280;40174;52.364;6.452;2023-02-12T07:45:20;103632.72;;;5.05;100.00
54262;BME280;40174;52.364;6.452;2023-02-12T07:47:47;103631.84;;;5.05;100.00
54262;BME280;40174;52.364;6.452;2023-02-12T07:50:14;103641.44;;;5.07;100.00
54262;BME280;40174;52.364;6.452;2023-02-12T07:52:41;103649.25;;;5.09;100.00
54262;BME280;40174;52.364;6.452;2023-02-12T07:55:07;103652.72;;;5.11;100.00
54262;BME280;40174;52.364;6.452;2023-02-12T07:57:35;103648.38;;;5.11;100.00
54262;BME280;40174;52.364;6.452;2023-02-12T08:00:03;103649.25;;;5.10;100.00
54262;BME280;40174;52.364;6.452;2023-02-12T08:02:37;103647.47;;;5.12;100.00
54262;BME280;40174;52.364;6.452;2023-02-12T08:05:04;103659.72;;;5.12;100.00
54262;BME280;40174;52.364;6.452;2023-02-12T08:07:31;103657.06;;;5.13;100.00
54262;BME280;40174;52.364;6.452;2023-02-12T08:09:58;103663.16;;;5.15;100.00
54262;BME280;40174;52.364;6.452;2023-02-12T08:12:24;103660.50;;;5.18;100.00
54262;BME280;40174;52.364;6.452;2023-02-12T08:14:52;103656.13;;;5.20;100.00
54262;BME280;40174;52.364;6.452;2023-02-12T08:17:19;103669.19;;;5.22;100.00
54262;BME280;40174;52.364;6.452;2023-02-12T08:19:46;103670.09;;;5.23;100.00
54262;BME280;40174;52.364;6.452;2023-02-12T08:22:12;103665.66;;;5.26;100.00
54262;BME280;40174;52.364;6.452;2023-02-12T08:24:39;103669.97;;;5.29;100.00
54262;BME280;40174;52.364;6.452;2023-02-12T08:27:06;103669.97;;;5.30;100.00
54262;BME280;40174;52.364;6.452;2023-02-12T08:29:33;103671.69;;;5.34;100.00
54262;BME280;40174;52.364;6.452;2023-02-12T08:32:02;103675.16;;;5.35;100.00
54262;BME280;40174;52.364;6.452;2023-02-12T08:34:33;103684.78;;;5.36;100.00
54262;BME280;40174;52.364;6.452;2023-02-12T08:37:01;103683.88;;;5.37;100.00
54262;BME280;40174;52.364;6.452;2023-02-12T08:39:29;103686.44;;;5.40;100.00
54262;BME280;40174;52.364;6.452;2023-02-12T08:41:57;103686.44;;;5.43;100.00
54262;BME280;40174;52.364;6.452;2023-02-12T08:44:24;103683.75;;;5.45;100.00
54262;BME280;40174;52.364;6.452;2023-02-12T08:46:52;103695.09;;;5.47;100.00
54262;BME280;40174;52.364;6.452;2023-02-12T08:49:23;103692.47;;;5.50;100.00
54262;BME280;40174;52.364;6.452;2023-02-12T08:51:51;103696.78;;;5.52;100.00
54262;BME280;40174;52.364;6.452;2023-02-12T08:54:20;103702.91;;;5.54;100.00
54262;BME280;40174;52.364;6.452;2023-02-12T08:56:47;103694.16;;;5.54;100.00
54262;BME280;40174;52.364;6.452;2023-02-12T08:59:15;103702.81;;;5.59;100.00
54262;BME280;40174;52.364;6.452;2023-02-12T09:01:42;103705.41;;;5.60;100.00
54262;BME280;40174;52.364;6.452;2023-02-12T09:04:13;103705.38;;;5.63;100.00
54262;BME280;40174;52.364;6.452;2023-02-12T09:06:44;103714.13;;;5.66;100.00
54262;BME280;40174;52.364;6.452;2023-02-12T09:09:11;103714.91;;;5.69;100.00
54262;BME280;40174;52.364;6.452;2023-02-12T09:11:38;103720.16;;;5.72;100.00
54262;BME280;40174;52.364;6.452;2023-02-12T09:14:06;103710.50;;;5.74;100.00
54262;BME280;40174;52.364;6.452;2023-02-12T09:16:34;103707.75;;;5.80;100.00
54262;BME280;40174;52.364;6.452;2023-02-12T09:19:02;103713.00;;;5.82;100.00
54262;BME280;40174;52.364;6.452;2023-02-12T09:21:29;103712.97;;;5.83;100.00
54262;BME280;40174;52.364;6.452;2023-02-12T09:23:56;103717.25;;;5.89;100.00
54262;BME280;40174;52.364;6.452;2023-02-12T09:26:24;103718.13;;;5.91;100.00
54262;BME280;40174;52.364;6.452;2023-02-12T09:28:52;103713.72;;;5.95;100.00
54262;BME280;40174;52.364;6.452;2023-02-12T09:31:20;103725.03;;;6.00;100.00
54262;BME280;40174;52.364;6.452;2023-02-12T09:33:50;103721.47;;;6.02;100.00
54262;BME280;40174;52.364;6.452;2023-02-12T09:36:17;103717.03;;;6.08;100.00
54262;BME280;40174;52.364;6.452;2023-02-12T09:38:44;103721.38;;;6.10;100.00
54262;BME280;40174;52.364;6.452;2023-02-12T09:41:27;103709.09;;;6.12;100.00
54262;BME280;40174;52.364;6.452;2023-02-12T09:44:03;103705.50;;;6.16;100.00
54262;BME280;40174;52.364;6.452;2023-02-12T09:46:37;103713.34;;;6.19;100.00
54262;BME280;40174;52.364;6.452;2023-02-12T09:49:08;103723.78;;;6.26;100.00
54262;BME280;40174;52.364;6.452;2023-02-12T09:51:37;103721.09;;;6.27;100.00
54262;BME280;40174;52.364;6.452;2023-02-12T09:54:05;103717.53;;;6.31;100.00
54262;BME280;40174;52.364;6.452;2023-02-12T09:56:37;103713.06;;;6.36;100.00
54262;BME280;40174;52.364;6.452;2023-02-12T09:59:06;103712.97;;;6.42;100.00
54262;BME280;40174;52.364;6.452;2023-02-12T10:01:34;103721.63;;;6.49;100.00
54262;BME280;40174;52.364;6.452;2023-02-12T10:04:03;103717.19;;;6.53;100.00
54262;BME280;40174;52.364;6.452;2023-02-12T10:06:34;103714.50;;;6.56;100.00
54262;BME280;40174;52.364;6.452;2023-02-12T10:12:00;103716.97;;;6.63;100.00
54262;BME280;40174;52.364;6.452;2023-02-12T10:14:42;103712.53;;;6.67;100.00
54262;BME280;40174;52.364;6.452;2023-02-12T10:17:18;103720.28;;;6.75;100.00
54262;BME280;40174;52.364;6.452;2023-02-12T10:22:56;103724.50;;;6.83;100.00
54262;BME280;40174;52.364;6.452;2023-02-12T10:25:28;103727.94;;;6.87;100.00
54262;BME280;40174;52.364;6.452;2023-02-12T10:28:06;103720.06;;;6.87;100.00
54262;BME280;40174;52.364;6.452;2023-02-12T10:30:39;103729.59;;;6.93;100.00
54262;BME280;40174;52.364;6.452;2023-02-12T10:33:13;103722.50;;;6.96;100.00
54262;BME280;40174;52.364;6.452;2023-02-12T10:35:43;103720.72;;;6.98;100.00
54262;BME280;40174;52.364;6.452;2023-02-12T10:38:15;103718.00;;;7.04;100.00
54262;BME280;40174;52.364;6.452;2023-02-12T10:40:44;103713.50;;;7.08;100.00
54262;BME280;40174;52.364;6.452;2023-02-12T10:43:12;103713.50;;;7.10;100.00
54262;BME280;40174;52.364;6.452;2023-02-12T10:45:40;103717.72;;;7.17;100.00
54262;BME280;40174;52.364;6.452;2023-02-12T10:48:10;103722.03;;;7.21;100.00
54262;BME280;40174;52.364;6.452;2023-02-12T10:50:44;103719.31;;;7.25;100.00
54262;BME280;40174;52.364;6.452;2023-02-12T10:53:19;103721.00;;;7.28;100.00
54262;BME280;40174;52.364;6.452;2023-02-12T10:55:46;103728.88;;;7.29;100.00
54262;BME280;40174;52.364;6.452;2023-02-12T10:58:20;103724.44;;;7.33;100.00
54262;BME280;40174;52.364;6.452;2023-02-12T11:00:55;103723.53;;;7.34;100.00
54262;BME280;40174;52.364;6.452;2023-02-12T11:03:27;103729.56;;;7.39;100.00
54262;BME280;40174;52.364;6.452;2023-02-12T11:05:54;103730.38;;;7.43;100.00
54262;BME280;40174;52.364;6.452;2023-02-12T11:08:31;103719.88;;;7.41;100.00
54262;BME280;40174;52.364;6.452;2023-02-12T11:11:07;103722.44;;;7.44;100.00
54262;BME280;40174;52.364;6.452;2023-02-12T11:13:38;103722.34;;;7.49;100.00
54262;BME280;40174;52.364;6.452;2023-02-12T11:16:05;103719.56;;;7.55;100.00
54262;BME280;40174;52.364;6.452;2023-02-12T11:18:33;103716.94;;;7.55;100.00
54262;BME280;40174;52.364;6.452;2023-02-12T11:21:03;103715.97;;;7.59;100.00
54262;BME280;40174;52.364;6.452;2023-02-12T11:23:32;103706.28;;;7.60;100.00
54262;BME280;40174;52.364;6.452;2023-02-12T11:26:01;103719.34;;;7.66;100.00
54262;BME280;40174;52.364;6.452;2023-02-12T11:28:29;103714.88;;;7.69;100.00
54262;BME280;40174;52.364;6.452;2023-02-12T11:30:59;103704.25;;;7.74;100.00
54262;BME280;40174;52.364;6.452;2023-02-12T11:33:29;103705.09;;;7.75;100.00
54262;BME280;40174;52.364;6.452;2023-02-12T11:35:58;103704.97;;;7.81;100.00
54262;BME280;40174;52.364;6.452;2023-02-12T11:38:28;103702.22;;;7.85;100.00
54262;BME280;40174;52.364;6.452;2023-02-12T11:40:58;103699.59;;;7.85;100.00
54262;BME280;40174;52.364;6.452;2023-02-12T11:43:26;103703.91;;;7.89;100.00
54262;BME280;40174;52.364;6.452;2023-02-12T11:45:55;103699.47;;;7.91;100.00
54262;BME280;40174;52.364;6.452;2023-02-12T11:48:27;103694.13;;;7.95;100.00
54262;BME280;40174;52.364;6.452;2023-02-12T11:50:56;103695.81;;;7.97;100.00
54262;BME280;40174;52.364;6.452;2023-02-12T11:53:26;103693.13;;;7.99;100.00
54262;BME280;40174;52.364;6.452;2023-02-12T11:55:56;103692.19;;;8.01;100.00
54262;BME280;40174;52.364;6.452;2023-02-12T11:58:25;103693.81;;;8.07;100.00
54262;BME280;40174;52.364;6.452;2023-02-12T12:01:05;103695.56;;;8.08;100.00
54262;BME280;40174;52.364;6.452;2023-02-12T12:03:41;103690.34;;;8.05;100.00
54262;BME280;40174;52.364;6.452;2023-02-12T12:06:22;103686.00;;;8.02;100.00
54262;BME280;40174;52.364;6.452;2023-02-12T12:08:53;103685.91;;;8.07;100.00
54262;BME280;40174;52.364;6.452;2023-02-12T12:11:28;103682.41;;;8.06;100.00
54262;BME280;40174;52.364;6.452;2023-02-12T12:14:01;103682.41;;;8.06;100.00
54262;BME280;40174;52.364;6.452;2023-02-12T12:16:32;103679.81;;;8.05;100.00
54262;BME280;40174;52.364;6.452;2023-02-12T12:19:22;103676.31;;;8.04;100.00
54262;BME280;40174;52.364;6.452;2023-02-12T12:22:25;103678.06;;;8.05;100.00
54262;BME280;40174;52.364;6.452;2023-02-12T12:24:56;103666.63;;;8.05;100.00
54262;BME280;40174;52.364;6.452;2023-02-12T12:27:32;103674.53;;;8.05;100.00
54262;BME280;40174;52.364;6.452;2023-02-12T12:30:23;103678.06;;;8.05;100.00
54262;BME280;40174;52.364;6.452;2023-02-12T12:32:56;103664.88;;;8.05;100.00
54262;BME280;40174;52.364;6.452;2023-02-12T12:35:33;103656.00;;;8.09;100.00
54262;BME280;40174;52.364;6.452;2023-02-12T12:38:07;103662.13;;;8.10;100.00
54262;BME280;40174;52.364;6.452;2023-02-12T12:40:53;103666.50;;;8.11;100.00
54262;BME280;40174;52.364;6.452;2023-02-12T12:43:34;103662.13;;;8.10;100.00
54262;BME280;40174;52.364;6.452;2023-02-12T12:46:15;103666.47;;;8.12;100.00
54262;BME280;40174;52.364;6.452;2023-02-12T12:48:54;103656.81;;;8.11;100.00
54262;BME280;40174;52.364;6.452;2023-02-12T12:51:39;103650.63;;;8.14;100.00
54262;BME280;40174;52.364;6.452;2023-02-12T12:54:24;103658.53;;;8.14;100.00
54262;BME280;40174;52.364;6.452;2023-02-12T12:57:01;103648.84;;;8.15;100.00
54262;BME280;40174;52.364;6.452;2023-02-12T13:00:03;103643.56;;;8.16;100.00
54262;BME280;40174;52.364;6.452;2023-02-12T13:06:07;103634.63;;;8.20;100.00
54262;BME280;40174;52.364;6.452;2023-02-12T13:09:25;103636.25;;;8.26;100.00
54262;BME280;40174;52.364;6.452;2023-02-12T13:12:05;103627.44;;;8.27;100.00
54262;BME280;40174;52.364;6.452;2023-02-12T13:14:40;103626.44;;;8.32;100.00
54262;BME280;40174;52.364;6.452;2023-02-12T13:17:13;103623.75;;;8.34;100.00
54262;BME280;40174;52.364;6.452;2023-02-12T13:19:51;103625.47;;;8.35;100.00
54262;BME280;40174;52.364;6.452;2023-02-12T13:22:23;103623.69;;;8.36;100.00
54262;BME280;40174;52.364;6.452;2023-02-12T13:24:56;103622.81;;;8.37;100.00